Whitehall, Ohio
Current Conditions -  °F | °C
As of 7:51 PM on Sunday 23 Nov 2014 (Local Time) from KCMH Reporting Station
Overcast Overcast  
Wind Chill: 53°   Ceiling: 5000
Heat Index: 53°   Visibility: 10mi
Dew Point: 48°   Wind: 17mph
Humidity: 83%   Direction: 130°SE
Pressure: 29.54"   Gusts: 22mph
Location:  39.97°N, 82.88°W
Report Text: KCMH 240051Z 13015G19KT 10SM OVC050 12/09 A2954 RMK AO2 RAE25 SLP002 P0002 T01170089 $
Loading
Personal Weather Stations






























Interactive Weather Map New forecast layout! Learn more

10-Day Weather Forecast

Advertisements
Track Severe Weather on mobile